createdAt,value
2023-06-13T00:01:10.113Z,16.40
2023-06-13T00:03:38.454Z,16.42
2023-06-13T00:06:06.683Z,16.39
2023-06-13T00:08:36.143Z,16.32
2023-06-13T00:11:04.185Z,16.30
2023-06-13T00:13:32.077Z,16.25
2023-06-13T00:16:01.241Z,16.29
2023-06-13T00:18:32.230Z,16.31
2023-06-13T00:21:01.062Z,16.34
2023-06-13T00:23:29.271Z,16.27
2023-06-13T00:25:58.548Z,16.39
2023-06-13T00:28:26.470Z,16.38
2023-06-13T00:30:54.517Z,16.40
2023-06-13T00:33:22.725Z,16.35
2023-06-13T00:35:50.824Z,16.30
2023-06-13T00:38:22.319Z,16.31
2023-06-13T00:40:51.698Z,16.31
2023-06-13T00:43:21.098Z,16.33
2023-06-13T00:45:49.305Z,16.35
2023-06-13T00:48:18.296Z,16.34
2023-06-13T00:50:46.865Z,16.28
2023-06-13T00:53:19.332Z,16.41
2023-06-13T00:55:48.649Z,16.36
2023-06-13T00:58:18.540Z,16.46
2023-06-13T01:00:48.031Z,16.46
2023-06-13T01:03:18.156Z,16.38
2023-06-13T01:05:47.665Z,16.32
2023-06-13T01:08:18.903Z,16.24
2023-06-13T01:10:50.047Z,16.16
2023-06-13T01:13:25.518Z,16.14
2023-06-13T01:16:01.534Z,16.14
2023-06-13T01:18:31.632Z,16.10
2023-06-13T01:21:01.921Z,16.12
2023-06-13T01:23:39.437Z,16.00
2023-06-13T01:26:15.295Z,16.02
2023-06-13T01:28:48.211Z,16.04
2023-06-13T01:31:18.413Z,15.99
2023-06-13T01:33:47.853Z,16.04
2023-06-13T01:36:16.869Z,16.05
2023-06-13T01:38:45.275Z,16.09
2023-06-13T01:41:13.185Z,16.11
2023-06-13T01:43:41.192Z,16.08
2023-06-13T01:46:18.138Z,16.06
2023-06-13T01:48:52.902Z,16.06
2023-06-13T01:51:28.131Z,15.99
2023-06-13T01:53:58.435Z,16.00
2023-06-13T01:56:29.964Z,15.92
2023-06-13T01:58:59.630Z,15.91
2023-06-13T02:01:30.103Z,15.92
2023-06-13T02:03:58.330Z,15.86
2023-06-13T02:06:28.101Z,15.81
2023-06-13T02:08:57.004Z,15.77
2023-06-13T02:11:25.160Z,15.77
2023-06-13T02:13:53.078Z,15.65
2023-06-13T02:16:26.841Z,15.70
2023-06-13T02:18:56.976Z,15.63
2023-06-13T02:21:24.969Z,15.61
2023-06-13T02:23:53.247Z,15.64
2023-06-13T02:26:21.613Z,15.66
2023-06-13T02:28:50.718Z,15.63
2023-06-13T02:31:18.998Z,15.58
2023-06-13T02:33:47.145Z,15.55
2023-06-13T02:36:16.690Z,15.47
2023-06-13T02:38:45.744Z,15.45
2023-06-13T02:41:14.016Z,15.47
2023-06-13T02:43:41.915Z,15.38
2023-06-13T02:46:09.868Z,15.48
2023-06-13T02:48:37.919Z,15.49
2023-06-13T02:51:08.613Z,15.52
2023-06-13T02:53:38.071Z,15.47
2023-06-13T02:56:07.828Z,15.32
2023-06-13T02:58:35.833Z,15.46
2023-06-13T03:01:03.931Z,15.47
2023-06-13T03:03:32.389Z,15.41
2023-06-13T03:06:00.657Z,15.32
2023-06-13T03:08:28.995Z,15.39
2023-06-13T03:10:58.648Z,15.32
2023-06-13T03:13:28.553Z,15.18
2023-06-13T03:15:58.758Z,15.26
2023-06-13T03:18:26.930Z,15.22
2023-06-13T03:20:54.871Z,15.25
2023-06-13T03:23:22.776Z,15.34
2023-06-13T03:25:51.601Z,15.19
2023-06-13T03:28:20.918Z,15.27
2023-06-13T03:30:48.964Z,15.38
2023-06-13T03:33:16.963Z,15.33
2023-06-13T03:35:45.530Z,15.32
2023-06-13T03:38:13.630Z,15.33
2023-06-13T03:40:41.537Z,15.34
2023-06-13T03:43:09.499Z,15.24
2023-06-13T03:45:38.869Z,15.31
2023-06-13T03:48:07.548Z,15.28
2023-06-13T03:50:35.569Z,15.40
2023-06-13T03:53:03.781Z,15.32
2023-06-13T03:55:33.313Z,15.36
2023-06-13T03:58:01.385Z,15.31
2023-06-13T04:00:30.640Z,15.32
2023-06-13T04:03:01.679Z,15.34
2023-06-13T04:05:29.755Z,15.45
2023-06-13T04:07:57.678Z,15.27
2023-06-13T04:10:29.341Z,15.33
2023-06-13T04:12:58.125Z,15.21
2023-06-13T04:15:26.153Z,15.05
2023-06-13T04:17:54.221Z,15.16
2023-06-13T04:20:25.498Z,15.22
2023-06-13T04:22:55.515Z,15.27
2023-06-13T04:25:23.831Z,15.09
2023-06-13T04:27:54.267Z,15.29
2023-06-13T04:30:22.335Z,15.48
2023-06-13T04:32:53.569Z,15.53
2023-06-13T04:35:23.561Z,15.43
2023-06-13T04:37:53.406Z,15.40
2023-06-13T04:40:22.213Z,15.50
2023-06-13T04:42:52.695Z,15.52
2023-06-13T04:45:23.158Z,15.72
2023-06-13T04:47:57.868Z,15.56
2023-06-13T04:50:28.430Z,15.92
2023-06-13T04:52:56.471Z,15.97
2023-06-13T04:55:26.489Z,16.02
2023-06-13T04:57:55.858Z,16.21
2023-06-13T05:00:25.859Z,16.33
2023-06-13T05:02:56.971Z,16.32
2023-06-13T05:05:25.524Z,16.47
2023-06-13T05:07:57.057Z,16.60
2023-06-13T05:10:26.005Z,16.69
2023-06-13T05:12:54.251Z,16.82
2023-06-13T05:15:22.682Z,16.93
2023-06-13T05:17:58.472Z,17.07
2023-06-13T05:20:28.719Z,17.07
2023-06-13T05:22:58.335Z,17.13
2023-06-13T05:25:28.226Z,17.26
2023-06-13T05:27:57.047Z,17.26
2023-06-13T05:30:25.401Z,17.44
2023-06-13T05:32:54.095Z,17.43
2023-06-13T05:35:22.377Z,17.52
2023-06-13T05:37:52.488Z,17.25
2023-06-13T05:40:21.924Z,17.45
2023-06-13T05:42:50.035Z,17.34
2023-06-13T05:45:18.103Z,17.55
2023-06-13T05:47:46.089Z,17.66
2023-06-13T05:50:14.788Z,17.80
2023-06-13T05:52:43.135Z,17.88
2023-06-13T05:55:11.346Z,17.84
2023-06-13T05:57:42.096Z,18.18
2023-06-13T06:00:13.828Z,18.34
2023-06-13T06:02:42.391Z,18.37
2023-06-13T06:05:12.511Z,18.35
2023-06-13T06:07:40.775Z,18.48
2023-06-13T06:10:10.114Z,18.61
2023-06-13T06:12:38.560Z,18.64
2023-06-13T06:15:09.227Z,18.78
2023-06-13T06:17:37.422Z,18.69
2023-06-13T06:20:08.028Z,18.62
2023-06-13T06:22:37.981Z,18.67
2023-06-13T06:25:10.270Z,18.73
2023-06-13T06:27:38.320Z,18.95
2023-06-13T06:30:09.287Z,18.83
2023-06-13T06:32:37.258Z,19.03
2023-06-13T06:35:05.994Z,19.14
2023-06-13T06:37:34.338Z,19.22
2023-06-13T06:40:02.723Z,19.43
2023-06-13T06:42:30.715Z,19.60
2023-06-13T06:44:58.615Z,19.70
2023-06-13T06:47:27.981Z,19.80
2023-06-13T06:49:56.115Z,19.41
2023-06-13T06:52:24.060Z,19.50
2023-06-13T06:54:52.035Z,19.52
2023-06-13T06:57:23.071Z,19.80
2023-06-13T06:59:51.631Z,19.96
2023-06-13T07:02:21.536Z,20.13
2023-06-13T07:04:51.967Z,20.09
2023-06-13T07:07:19.994Z,20.27
2023-06-13T07:09:48.000Z,20.00
2023-06-13T07:12:16.026Z,20.22
2023-06-13T07:14:43.946Z,19.87
2023-06-13T07:17:11.931Z,19.73
2023-06-13T07:19:39.820Z,19.82
2023-06-13T07:22:09.269Z,19.75
2023-06-13T07:24:37.327Z,19.76
2023-06-13T07:27:05.844Z,19.83
2023-06-13T07:29:33.870Z,20.13
2023-06-13T07:32:02.510Z,20.39
2023-06-13T07:34:54.318Z,20.49
2023-06-13T07:37:20.760Z,20.80
2023-06-13T07:39:48.901Z,20.85
2023-06-13T07:42:17.048Z,20.70
2023-06-13T07:44:45.005Z,20.72
2023-06-13T07:47:12.944Z,20.65
2023-06-13T07:49:41.034Z,20.72
2023-06-13T07:52:10.227Z,20.85
2023-06-13T07:54:39.561Z,20.94
2023-06-13T07:57:25.558Z,20.79
2023-06-13T07:59:57.141Z,20.81
2023-06-13T08:02:25.467Z,20.76
2023-06-13T08:04:55.181Z,20.67
2023-06-13T08:07:24.238Z,20.63
2023-06-13T08:09:53.649Z,20.58
2023-06-13T08:12:21.671Z,20.62
2023-06-13T08:14:49.701Z,20.57
2023-06-13T08:17:17.732Z,20.56
2023-06-13T08:19:49.711Z,20.49
2023-06-13T08:22:18.086Z,20.38
2023-06-13T08:24:46.769Z,20.00
2023-06-13T08:27:17.549Z,20.14
2023-06-13T08:29:45.823Z,19.96
2023-06-13T08:32:14.013Z,20.13
2023-06-13T08:34:41.910Z,20.22
2023-06-13T08:37:09.934Z,20.31
2023-06-13T08:39:39.131Z,20.38
2023-06-13T08:42:10.037Z,20.46
2023-06-13T08:44:40.010Z,20.33
2023-06-13T08:47:16.734Z,20.27
2023-06-13T08:49:50.910Z,20.12
2023-06-13T08:52:20.563Z,19.98
2023-06-13T08:55:05.129Z,19.66
2023-06-13T08:57:41.892Z,19.69
2023-06-13T09:00:13.117Z,19.50
2023-06-13T09:02:44.716Z,19.40
2023-06-13T09:05:15.314Z,19.52
2023-06-13T09:07:44.024Z,19.61
2023-06-13T09:10:13.045Z,19.68
2023-06-13T09:12:43.235Z,19.72
2023-06-13T09:15:13.381Z,19.82
2023-06-13T09:17:41.977Z,19.96
2023-06-13T09:20:12.082Z,20.02
2023-06-13T09:22:40.811Z,20.09
2023-06-13T09:25:10.808Z,20.04
2023-06-13T09:27:38.818Z,19.99
2023-06-13T09:30:09.420Z,19.81
2023-06-13T09:32:40.092Z,19.84
2023-06-13T09:35:08.191Z,19.95
2023-06-13T09:37:36.871Z,19.79
2023-06-13T09:40:14.316Z,19.95
2023-06-13T09:42:56.433Z,19.97
2023-06-13T09:45:30.802Z,19.98
2023-06-13T09:48:00.252Z,19.95
2023-06-13T09:50:31.250Z,19.79
2023-06-13T09:52:59.781Z,19.65
2023-06-13T09:55:28.355Z,19.67
2023-06-13T09:58:18.169Z,19.73
2023-06-13T10:00:44.752Z,19.70
2023-06-13T10:03:21.192Z,19.71
2023-06-13T10:05:50.444Z,19.89
2023-06-13T10:08:18.717Z,19.77
2023-06-13T10:10:46.987Z,19.72
2023-06-13T10:13:20.853Z,19.57
2023-06-13T10:15:54.155Z,19.83
2023-06-13T10:18:27.293Z,19.64
2023-06-13T10:20:58.871Z,19.88
2023-06-13T10:23:30.217Z,19.93
2023-06-13T10:26:01.896Z,20.00
2023-06-13T10:28:44.248Z,19.91
2023-06-13T10:31:27.769Z,20.03
2023-06-13T10:34:11.308Z,20.05
2023-06-13T10:37:00.976Z,20.08
2023-06-13T10:39:42.471Z,20.14
2023-06-13T10:42:20.665Z,20.15
2023-06-13T10:44:57.580Z,19.86
2023-06-13T10:47:25.822Z,19.90
2023-06-13T10:49:55.441Z,20.15
2023-06-13T10:52:25.224Z,20.25
2023-06-13T10:54:59.464Z,20.27
2023-06-13T10:57:47.983Z,20.31
2023-06-13T11:00:25.829Z,20.39
2023-06-13T11:02:59.690Z,20.46
2023-06-13T11:05:41.915Z,20.69
2023-06-13T11:08:15.651Z,20.87
2023-06-13T11:10:44.519Z,21.01
2023-06-13T11:13:19.187Z,21.12
2023-06-13T11:15:47.246Z,21.12
2023-06-13T11:18:46.746Z,21.39
2023-06-13T11:21:16.690Z,21.59
2023-06-13T11:23:55.433Z,21.74
2023-06-13T11:26:23.636Z,22.05
2023-06-13T11:28:53.018Z,22.31
2023-06-13T11:31:21.768Z,22.26
2023-06-13T11:33:52.302Z,22.59
2023-06-13T11:36:25.194Z,22.62
2023-06-13T11:39:00.298Z,22.74
2023-06-13T11:41:29.607Z,22.29
2023-06-13T11:43:58.311Z,22.15
2023-06-13T11:46:26.940Z,22.06
2023-06-13T11:48:59.032Z,21.68
2023-06-13T11:51:32.055Z,21.47
2023-06-13T11:54:02.402Z,21.34
2023-06-13T11:56:31.551Z,21.07
2023-06-13T11:58:59.843Z,20.87
2023-06-13T12:01:29.428Z,20.70
2023-06-13T12:04:00.132Z,20.56
2023-06-13T12:06:30.113Z,20.45
2023-06-13T12:08:59.085Z,20.43
2023-06-13T12:11:30.511Z,19.93
2023-06-13T12:13:59.902Z,19.78
2023-06-13T12:16:30.770Z,19.69
2023-06-13T12:19:00.630Z,19.48
2023-06-13T12:21:31.967Z,19.17
2023-06-13T12:24:04.646Z,19.04
2023-06-13T12:26:35.124Z,18.82
2023-06-13T12:29:07.511Z,18.46
2023-06-13T12:31:39.256Z,18.50
2023-06-13T12:34:09.087Z,18.41
2023-06-13T12:36:45.824Z,18.30
2023-06-13T12:39:15.514Z,18.25
2023-06-13T12:41:48.445Z,18.20
2023-06-13T12:44:17.565Z,17.99
2023-06-13T12:46:47.184Z,18.06
2023-06-13T12:49:20.340Z,18.06
2023-06-13T12:51:53.472Z,18.09
2023-06-13T12:54:24.943Z,17.97
2023-06-13T12:56:54.189Z,17.83
2023-06-13T12:59:31.853Z,17.90
2023-06-13T13:02:00.065Z,17.29
2023-06-13T13:04:32.595Z,17.35
2023-06-13T13:07:02.490Z,17.42
2023-06-13T13:09:31.726Z,17.42
2023-06-13T13:12:00.918Z,17.26
2023-06-13T13:14:29.673Z,17.46
2023-06-13T13:16:58.364Z,17.25
2023-06-13T13:19:27.154Z,17.04
2023-06-13T13:21:55.562Z,16.69
2023-06-13T13:24:25.191Z,16.55
2023-06-13T13:26:55.945Z,16.37
2023-06-13T13:29:25.084Z,16.23
2023-06-13T13:31:53.406Z,16.13
2023-06-13T13:34:23.991Z,16.00
2023-06-13T13:36:54.150Z,16.07
2023-06-13T13:39:22.684Z,16.06
2023-06-13T13:41:52.160Z,16.12
2023-06-13T13:44:20.133Z,16.07
2023-06-13T13:46:48.080Z,16.24
2023-06-13T13:49:16.151Z,16.18
2023-06-13T13:51:44.452Z,16.06
2023-06-13T13:54:13.212Z,16.01
2023-06-13T13:56:41.409Z,16.08
2023-06-13T13:59:10.945Z,16.14
2023-06-13T14:01:38.984Z,16.16
2023-06-13T14:04:07.505Z,16.14
2023-06-13T14:06:36.122Z,16.18
2023-06-13T14:09:05.526Z,16.11
2023-06-13T14:11:33.602Z,16.23
2023-06-13T14:14:01.748Z,16.18
2023-06-13T14:16:31.272Z,16.33
2023-06-13T14:18:59.449Z,16.40
2023-06-13T14:21:29.017Z,16.50
2023-06-13T14:23:58.530Z,16.57
2023-06-13T14:26:28.807Z,16.58
2023-06-13T14:28:57.183Z,16.67
2023-06-13T14:31:25.737Z,16.66
2023-06-13T14:33:56.763Z,16.74
2023-06-13T14:36:25.121Z,16.69
2023-06-13T14:38:53.439Z,16.71
2023-06-13T14:41:21.374Z,16.74
2023-06-13T14:43:49.405Z,16.83
2023-06-13T14:46:17.615Z,16.86
2023-06-13T14:48:45.573Z,16.88
2023-06-13T14:51:15.500Z,16.84
2023-06-13T14:53:43.780Z,16.90
2023-06-13T14:56:12.057Z,16.84
2023-06-13T14:58:40.023Z,16.86
2023-06-13T15:01:08.646Z,16.91
2023-06-13T15:03:41.329Z,16.89
2023-06-13T15:06:09.595Z,16.90
2023-06-13T15:08:40.592Z,16.93
2023-06-13T15:11:11.503Z,17.02
2023-06-13T15:13:39.949Z,17.00
2023-06-13T15:16:08.949Z,16.84
2023-06-13T15:18:37.865Z,16.92
2023-06-13T15:21:06.612Z,17.00
2023-06-13T15:23:34.671Z,16.91
2023-06-13T15:26:04.576Z,16.99
2023-06-13T15:28:33.542Z,17.05
2023-06-13T15:31:01.865Z,17.15
2023-06-13T15:33:33.772Z,17.26
2023-06-13T15:36:04.263Z,17.31
2023-06-13T15:38:33.113Z,17.34
2023-06-13T15:41:01.912Z,17.50
2023-06-13T15:43:31.513Z,17.42
2023-06-13T15:45:59.514Z,17.65
2023-06-13T15:48:27.494Z,17.51
2023-06-13T15:50:55.671Z,17.62
2023-06-13T15:53:23.926Z,17.77
2023-06-13T15:55:51.918Z,17.87
2023-06-13T15:58:19.853Z,17.95
2023-06-13T16:00:49.565Z,17.84
2023-06-13T16:03:17.803Z,18.03
2023-06-13T16:05:46.383Z,18.53
2023-06-13T16:08:14.458Z,18.68
2023-06-13T16:10:42.526Z,18.75
2023-06-13T16:13:11.578Z,18.90
2023-06-13T16:15:39.603Z,19.02
2023-06-13T16:18:09.875Z,19.07
2023-06-13T16:20:38.008Z,19.33
2023-06-13T16:23:06.226Z,19.39
2023-06-13T16:25:34.670Z,19.80
2023-06-13T16:28:03.438Z,20.35
2023-06-13T16:30:31.665Z,20.77
2023-06-13T16:32:59.784Z,20.92
2023-06-13T16:35:29.569Z,20.93
2023-06-13T16:37:57.864Z,21.38
2023-06-13T16:40:25.960Z,20.69
2023-06-13T16:42:56.708Z,20.77
2023-06-13T16:45:25.354Z,20.47
2023-06-13T16:47:54.052Z,20.19
2023-06-13T16:50:22.320Z,20.07
2023-06-13T16:52:53.302Z,20.30
2023-06-13T16:55:22.012Z,20.25
2023-06-13T16:57:50.003Z,20.16
2023-06-13T17:00:20.816Z,20.08
2023-06-13T17:02:48.986Z,19.84
2023-06-13T17:05:21.625Z,19.36
2023-06-13T17:08:16.045Z,19.42
2023-06-13T17:13:51.535Z,18.79
2023-06-13T17:16:20.826Z,18.63
2023-06-13T17:18:50.890Z,18.41
2023-06-13T17:21:20.767Z,18.33
2023-06-13T17:23:48.836Z,18.16
2023-06-13T17:26:18.709Z,17.93
2023-06-13T17:28:49.950Z,18.04
2023-06-13T17:31:18.581Z,17.97
2023-06-13T17:33:50.888Z,17.76
2023-06-13T17:36:20.180Z,17.68
2023-06-13T17:38:49.030Z,17.64
2023-06-13T17:41:19.295Z,17.62
2023-06-13T17:43:47.371Z,17.49
2023-06-13T17:46:16.823Z,17.52
2023-06-13T17:48:45.508Z,17.48
2023-06-13T17:51:13.740Z,17.27
2023-06-13T17:53:41.820Z,17.27
2023-06-13T17:56:10.330Z,17.25
2023-06-13T17:58:39.737Z,17.24
2023-06-13T18:01:07.881Z,17.34
2023-06-13T18:03:37.390Z,17.27
2023-06-13T18:06:05.625Z,17.24
2023-06-13T18:08:33.662Z,17.24
2023-06-13T18:11:01.706Z,17.10
2023-06-13T18:13:29.650Z,17.09
2023-06-13T18:15:59.209Z,17.18
2023-06-13T18:18:27.388Z,17.09
2023-06-13T18:20:55.698Z,17.16
2023-06-13T18:23:24.123Z,17.20
2023-06-13T18:25:52.492Z,17.18
2023-06-13T18:28:22.435Z,17.21
2023-06-13T18:30:50.616Z,17.27
2023-06-13T18:33:20.106Z,17.27
2023-06-13T18:35:48.132Z,17.13
2023-06-13T18:38:16.119Z,17.31
2023-06-13T18:40:46.532Z,17.36
2023-06-13T18:43:17.469Z,17.31
2023-06-13T18:45:58.883Z,17.40
2023-06-13T18:48:48.983Z,17.34
2023-06-13T18:51:17.457Z,17.31
2023-06-13T18:53:45.468Z,17.34
2023-06-13T18:56:13.499Z,17.21
2023-06-13T18:58:42.428Z,17.23
2023-06-13T19:01:10.689Z,17.13
2023-06-13T19:03:40.586Z,17.12
2023-06-13T19:06:09.289Z,17.07
2023-06-13T19:08:37.241Z,17.20
2023-06-13T19:11:05.284Z,17.24
2023-06-13T19:13:33.713Z,17.21
2023-06-13T19:16:04.057Z,17.25
2023-06-13T19:18:32.399Z,17.24
2023-06-13T19:21:01.916Z,17.31
2023-06-13T19:23:30.012Z,17.06
2023-06-13T19:26:00.227Z,17.07
2023-06-13T19:28:28.358Z,16.87
2023-06-13T19:30:56.735Z,17.15
2023-06-13T19:33:25.388Z,17.05
2023-06-13T19:35:54.133Z,17.01
2023-06-13T19:38:29.368Z,17.05
2023-06-13T19:40:57.711Z,17.09
2023-06-13T19:43:27.447Z,17.05
2023-06-13T19:45:55.784Z,17.03
2023-06-13T19:48:23.814Z,16.92
2023-06-13T19:50:53.792Z,17.05
2023-06-13T19:53:25.067Z,17.10
2023-06-13T19:55:53.013Z,17.07
2023-06-13T19:58:22.408Z,17.00
2023-06-13T20:00:53.687Z,17.13
2023-06-13T20:03:21.727Z,17.02
2023-06-13T20:05:50.132Z,17.10
2023-06-13T20:08:18.280Z,17.08
2023-06-13T20:10:47.861Z,16.95
2023-06-13T20:13:16.416Z,16.83
2023-06-13T20:15:45.069Z,16.86
2023-06-13T20:18:14.145Z,17.04
2023-06-13T20:20:42.288Z,16.89
2023-06-13T20:23:11.878Z,17.06
2023-06-13T20:25:41.278Z,17.05
2023-06-13T20:28:13.027Z,17.16
2023-06-13T20:30:42.588Z,17.09
2023-06-13T20:33:11.005Z,17.10
2023-06-13T20:35:39.441Z,17.02
2023-06-13T20:38:07.597Z,17.17
2023-06-13T20:40:35.717Z,17.16
2023-06-13T20:43:05.029Z,17.25
2023-06-13T20:45:34.531Z,17.16
2023-06-13T20:48:03.027Z,17.19
2023-06-13T20:50:32.131Z,17.23
2023-06-13T20:53:00.416Z,17.18
2023-06-13T20:55:29.604Z,17.26
2023-06-13T20:57:57.633Z,17.18
2023-06-13T21:00:27.269Z,17.30
2023-06-13T21:02:57.950Z,17.35
2023-06-13T21:05:28.480Z,17.40
2023-06-13T21:07:58.322Z,17.34
2023-06-13T21:10:29.488Z,17.29
2023-06-13T21:12:58.044Z,17.25
2023-06-13T21:15:27.071Z,17.03
2023-06-13T21:17:56.734Z,17.07
2023-06-13T21:20:26.130Z,17.07
2023-06-13T21:22:55.343Z,17.00
2023-06-13T21:25:24.692Z,17.01
2023-06-13T21:27:53.349Z,17.06
2023-06-13T21:30:21.664Z,17.11
2023-06-13T21:32:51.719Z,17.07
2023-06-13T21:35:22.195Z,17.02
2023-06-13T21:37:50.184Z,17.09
2023-06-13T21:40:18.681Z,17.08
2023-06-13T21:42:48.525Z,17.14
2023-06-13T21:45:26.335Z,17.17
2023-06-13T21:47:59.558Z,17.20
2023-06-13T21:50:29.177Z,17.22
2023-06-13T21:52:57.698Z,17.13
2023-06-13T21:55:26.141Z,17.12
2023-06-13T21:57:54.177Z,17.05
2023-06-13T22:00:24.270Z,16.90
2023-06-13T22:02:53.428Z,16.84
2023-06-13T22:05:22.137Z,16.86
2023-06-13T22:07:52.078Z,16.80
2023-06-13T22:10:20.734Z,16.66
2023-06-13T22:12:51.229Z,16.70
2023-06-13T22:15:19.711Z,16.63
2023-06-13T22:17:52.776Z,16.68
2023-06-13T22:20:23.052Z,16.63
2023-06-13T22:22:54.671Z,16.52
2023-06-13T22:25:24.035Z,16.51
2023-06-13T22:27:53.504Z,16.47
2023-06-13T22:30:22.834Z,16.43
2023-06-13T22:32:51.982Z,16.34
2023-06-13T22:35:21.241Z,16.42
2023-06-13T22:37:50.078Z,16.39
2023-06-13T22:40:20.178Z,16.37
2023-06-13T22:42:48.411Z,16.44
2023-06-13T22:45:16.738Z,16.48
2023-06-13T22:47:46.220Z,16.51
2023-06-13T22:50:15.807Z,16.34
2023-06-13T22:52:44.151Z,16.46
2023-06-13T22:55:12.166Z,16.36
2023-06-13T22:57:42.915Z,16.47
2023-06-13T23:00:13.426Z,16.47
2023-06-13T23:02:42.511Z,16.33
2023-06-13T23:05:10.965Z,16.45
2023-06-13T23:07:39.026Z,16.46
2023-06-13T23:10:07.684Z,16.49
2023-06-13T23:12:35.804Z,16.54
2023-06-13T23:15:05.827Z,16.54
2023-06-13T23:17:33.939Z,16.56
2023-06-13T23:20:02.616Z,16.49
2023-06-13T23:22:30.593Z,16.62
2023-06-13T23:24:59.432Z,16.63
2023-06-13T23:27:27.500Z,16.67
2023-06-13T23:29:56.729Z,16.58
2023-06-13T23:32:29.254Z,16.73
2023-06-13T23:34:58.756Z,16.60
2023-06-13T23:37:29.079Z,16.57
2023-06-13T23:39:57.164Z,16.61
2023-06-13T23:42:25.317Z,16.63
2023-06-13T23:44:53.513Z,16.60
2023-06-13T23:47:21.750Z,16.56
2023-06-13T23:49:51.342Z,16.55
2023-06-13T23:52:19.366Z,16.61
2023-06-13T23:54:47.517Z,16.50
2023-06-13T23:57:15.653Z,16.53
2023-06-13T23:59:43.579Z,16.40
